LELC/MJV METAR and TAF weather

Enter ICAO airport designator
Station Type Date Time Source
LELC METAR 2021/09/25 03:30 UTC NOAA

LELC 250330Z AUTO VRB02KT 8000 NSC 23/22 Q1015


Station Type Date Time Source
LELC Decoded METAR 2021/09/25 03:30 UTC NOAA

Murcia / San Javier, Spain (LELC) 37-47N 000-48W 3M
Sep 24, 2021 - 11:30 PM EDT / 2021.09.25 0330 UTC
Wind: Variable at 2 MPH (2 KT):0
Visibility: 4 mile(s):0
Temperature: 73 F (23 C)
Dew Point: 71 F (22 C)
Relative Humidity: 94%
Pressure (altimeter): 29.97 in. Hg (1015 hPa)
ob: LELC 250330Z AUTO VRB02KT 8000 NSC 23/22 Q1015
cycle: 3

Station Type Date Time Source
LELC TAF 2021/09/24 18:29 UTC NOAA

TAF LELC 241700Z 2418/2518 07012KT 9999 SCT020 TX28/2512Z TN22/2506Z PROB30
TEMPO 2423/2506 BKN014
BECMG 2501/2504 24005KT
BECMG 2510/2513 14011KT
BECMG 2516/2518 20010KT

Example: see airport list